Whites Store, New York
Current Conditions -  °F | °C
As of 9:53 AM on Thursday 30 Oct 2014 (Local Time) from KBGM Reporting Station
Broken Clouds Broken Clouds  
Wind Chill: 39°   Ceiling: 3000
Heat Index: 44°   Visibility: 10mi
Dew Point: 35°   Wind: 9mph
Humidity: 71%   Direction: 320°NW
Pressure: 30"   Gusts: NA
Location:  42.5358°N, 75.3475°W
Report Text: KBGM 301353Z 32008KT 280V340 10SM BKN030 07/02 A3000 RMK AO2 SLP167 T00670017
Loading
Personal Weather Stations






























Interactive Weather Map
Tropical Storm Tracking
New forecast layout! Learn more

10-Day Weather Forecast

Advertisements
Track Severe Weather on mobile